createdAt,value
2018-01-03T00:00:43.175Z,8.50
2018-01-03T00:03:11.430Z,8.50
2018-01-03T00:05:39.722Z,8.50
2018-01-03T00:08:08.051Z,8.50
2018-01-03T00:10:36.349Z,8.60
2018-01-03T00:13:05.415Z,8.60
2018-01-03T00:15:34.117Z,8.70
2018-01-03T00:25:32.011Z,8.80
2018-01-03T00:33:00.027Z,8.80
2018-01-03T00:35:29.012Z,8.80
2018-01-03T00:37:57.350Z,8.80
2018-01-03T00:40:26.336Z,8.80
2018-01-03T00:42:54.583Z,8.90
2018-01-03T00:45:22.944Z,8.80
2018-01-03T00:47:51.176Z,8.90
2018-01-03T00:55:19.891Z,8.90
2018-01-03T00:57:48.120Z,8.90
2018-01-03T01:00:16.404Z,8.90
2018-01-03T01:05:14.884Z,9.00
2018-01-03T01:07:44.661Z,9.00
2018-01-03T01:10:13.671Z,9.00
2018-01-03T01:15:12.159Z,9.00
2018-01-03T01:20:10.276Z,9.10
2018-01-03T01:22:38.540Z,9.20
2018-01-03T01:25:06.821Z,9.20
2018-01-03T01:27:35.028Z,9.20
2018-01-03T01:32:33.538Z,9.30
2018-01-03T01:35:01.768Z,9.30
2018-01-03T01:37:30.044Z,9.30
2018-01-03T01:39:59.031Z,9.30
2018-01-03T01:42:27.263Z,9.30
2018-01-03T01:44:55.555Z,9.30
2018-01-03T01:47:25.292Z,9.30
2018-01-03T01:49:53.540Z,9.40
2018-01-03T01:52:21.896Z,9.40
2018-01-03T01:54:50.128Z,9.30
2018-01-03T01:57:18.829Z,9.30
2018-01-03T01:59:48.033Z,9.30
2018-01-03T02:02:16.264Z,9.30
2018-01-03T02:04:44.523Z,9.30
2018-01-03T02:07:12.789Z,9.30
2018-01-03T02:09:41.024Z,9.30
2018-01-03T02:12:09.263Z,9.30
2018-01-03T02:14:37.581Z,9.30
2018-01-03T02:17:07.337Z,9.30
2018-01-03T02:19:36.709Z,9.30
2018-01-03T02:27:05.391Z,9.30
2018-01-03T02:29:33.688Z,9.30
2018-01-03T02:32:03.454Z,9.30
2018-01-03T02:34:31.699Z,9.30
2018-01-03T02:39:29.845Z,9.20
2018-01-03T02:44:28.773Z,9.20
2018-01-03T02:46:56.992Z,9.20
2018-01-03T02:49:26.368Z,9.30
2018-01-03T02:51:54.641Z,9.40
2018-01-03T02:56:52.783Z,9.40
2018-01-03T03:01:50.933Z,9.40
2018-01-03T03:04:19.173Z,9.50
2018-01-03T03:09:16.924Z,9.50
2018-01-03T03:11:45.164Z,9.60
2018-01-03T03:14:13.431Z,9.60
2018-01-03T03:16:41.667Z,9.60
2018-01-03T03:19:09.897Z,9.60
2018-01-03T03:21:38.172Z,9.70
2018-01-03T03:24:06.428Z,9.70
2018-01-03T03:29:04.281Z,9.80
2018-01-03T03:31:32.521Z,9.80
2018-01-03T03:34:00.733Z,9.80
2018-01-03T03:36:28.992Z,9.80
2018-01-03T03:41:27.444Z,9.80
2018-01-03T03:48:55.022Z,10.10
2018-01-03T03:53:53.175Z,10.40
2018-01-03T03:56:21.400Z,10.60
2018-01-03T03:58:49.656Z,10.80
2018-01-03T04:01:19.396Z,10.90
2018-01-03T04:06:17.524Z,11.10
2018-01-03T04:08:45.739Z,11.20
2018-01-03T04:11:14.005Z,11.20
2018-01-03T04:13:42.624Z,11.20
2018-01-03T04:16:10.876Z,11.30
2018-01-03T04:21:09.001Z,11.10
2018-01-03T04:23:37.242Z,11.00
2018-01-03T04:28:35.008Z,10.60
2018-01-03T04:31:04.828Z,10.40
2018-01-03T04:33:33.163Z,10.30
2018-01-03T04:36:01.396Z,10.10
2018-01-03T04:38:29.628Z,10.00
2018-01-03T04:40:57.916Z,9.90
2018-01-03T04:45:56.004Z,9.80
2018-01-03T04:48:25.768Z,9.80
2018-01-03T04:50:53.997Z,9.80
2018-01-03T04:53:22.259Z,9.80
2018-01-03T04:58:20.768Z,9.80
2018-01-03T05:00:49.008Z,9.80
2018-01-03T05:03:17.255Z,9.80
2018-01-03T05:05:45.476Z,9.80
2018-01-03T05:08:14.468Z,9.80
2018-01-03T05:10:42.740Z,9.80
2018-01-03T05:13:10.960Z,9.80
2018-01-03T05:15:39.196Z,9.80
2018-01-03T05:18:07.481Z,9.80
2018-01-03T05:20:35.677Z,9.70
2018-01-03T05:23:03.897Z,9.80
2018-01-03T05:25:32.148Z,9.80
2018-01-03T05:30:29.824Z,9.80
2018-01-03T05:32:58.124Z,9.80
2018-01-03T05:35:26.344Z,9.90
2018-01-03T05:37:54.587Z,9.90
2018-01-03T05:40:24.368Z,9.90
2018-01-03T05:42:52.993Z,9.90
2018-01-03T05:45:21.219Z,9.90
2018-01-03T05:47:50.244Z,10.00
2018-01-03T05:50:19.240Z,10.10
2018-01-03T05:52:48.232Z,10.10
2018-01-03T05:57:46.716Z,10.20
2018-01-03T06:00:14.944Z,10.20
2018-01-03T06:02:43.225Z,10.20
2018-01-03T06:05:11.477Z,10.20
2018-01-03T06:07:39.728Z,10.10
2018-01-03T06:10:09.162Z,10.00
2018-01-03T06:12:38.206Z,10.00
2018-01-03T06:15:06.429Z,10.00
2018-01-03T06:17:34.704Z,10.00
2018-01-03T06:20:04.441Z,10.00
2018-01-03T06:22:32.660Z,10.00
2018-01-03T06:25:01.393Z,10.00
2018-01-03T06:27:30.016Z,10.00
2018-01-03T06:29:58.264Z,10.00
2018-01-03T06:32:27.332Z,10.00
2018-01-03T06:37:26.565Z,10.00
2018-01-03T06:47:24.804Z,10.00
2018-01-03T06:49:53.054Z,10.00
2018-01-03T06:52:22.044Z,9.90
2018-01-03T06:54:50.320Z,9.80
2018-01-03T06:57:18.551Z,9.60
2018-01-03T06:59:47.944Z,9.70
2018-01-03T07:02:16.216Z,9.60
2018-01-03T07:04:44.457Z,9.60
2018-01-03T07:07:12.714Z,9.60
2018-01-03T07:12:11.962Z,9.00
2018-01-03T07:17:10.124Z,8.40
2018-01-03T07:19:38.345Z,8.20
2018-01-03T07:22:06.568Z,8.00
2018-01-03T07:24:34.859Z,8.00
2018-01-03T07:27:03.099Z,7.80
2018-01-03T07:29:31.324Z,7.70
2018-01-03T07:32:01.224Z,7.70
2018-01-03T07:34:29.476Z,7.70
2018-01-03T07:36:58.126Z,7.70
2018-01-03T07:41:56.727Z,7.70
2018-01-03T07:44:26.082Z,7.70
2018-01-03T07:46:54.348Z,7.80
2018-01-03T07:51:52.832Z,7.80
2018-01-03T07:54:21.855Z,7.80
2018-01-03T07:56:50.081Z,7.80
2018-01-03T07:59:18.335Z,7.80
2018-01-03T08:01:46.620Z,7.80
2018-01-03T08:04:16.360Z,7.80
2018-01-03T08:06:44.610Z,7.90
2018-01-03T08:09:12.899Z,7.90
2018-01-03T08:11:41.151Z,7.80
2018-01-03T08:14:09.406Z,7.90
2018-01-03T08:16:37.673Z,7.90
2018-01-03T08:19:05.905Z,7.90
2018-01-03T08:26:33.107Z,8.00
2018-01-03T08:29:02.105Z,8.00
2018-01-03T08:31:31.531Z,8.00
2018-01-03T08:33:59.768Z,8.00
2018-01-03T08:36:28.779Z,8.10
2018-01-03T08:38:57.857Z,8.10
2018-01-03T08:41:26.089Z,8.10
2018-01-03T08:43:54.316Z,8.10
2018-01-03T08:46:22.600Z,8.20
2018-01-03T08:48:50.833Z,8.10
2018-01-03T08:51:19.080Z,8.20
2018-01-03T08:53:47.340Z,8.20
2018-01-03T08:56:15.573Z,8.30
2018-01-03T09:03:43.594Z,8.40
2018-01-03T09:06:11.844Z,8.40
2018-01-03T09:08:40.554Z,8.50
2018-01-03T09:11:10.291Z,8.50
2018-01-03T09:13:38.521Z,8.70
2018-01-03T09:16:06.801Z,8.80
2018-01-03T09:18:35.788Z,8.90
2018-01-03T09:21:04.017Z,9.10
2018-01-03T09:23:32.576Z,9.20
2018-01-03T09:26:01.943Z,9.20
2018-01-03T09:28:30.192Z,8.70
2018-01-03T09:30:58.903Z,8.40
2018-01-03T09:33:27.127Z,8.10
2018-01-03T09:35:55.800Z,7.80
2018-01-03T09:38:25.595Z,7.60
2018-01-03T09:40:53.828Z,7.60
2018-01-03T09:43:23.196Z,7.50
2018-01-03T09:48:21.727Z,7.60
2018-01-03T09:50:49.957Z,7.70
2018-01-03T09:53:18.243Z,7.70
2018-01-03T09:55:47.608Z,7.80
2018-01-03T09:58:15.863Z,7.90
2018-01-03T10:03:13.766Z,8.00
2018-01-03T10:05:42.005Z,8.00
2018-01-03T10:10:40.173Z,8.10
2018-01-03T10:13:08.440Z,8.00
2018-01-03T10:15:38.228Z,8.10
2018-01-03T10:18:07.596Z,8.10
2018-01-03T10:20:36.619Z,8.10
2018-01-03T10:25:36.029Z,8.20
2018-01-03T10:28:05.043Z,8.20
2018-01-03T10:33:03.831Z,8.40
2018-01-03T10:35:32.084Z,8.40
2018-01-03T10:43:00.779Z,8.40
2018-01-03T10:45:29.840Z,8.40
2018-01-03T10:47:58.093Z,8.40
2018-01-03T10:52:56.043Z,8.40
2018-01-03T10:55:24.281Z,8.40
2018-01-03T10:57:52.508Z,8.40
2018-01-03T11:00:20.788Z,8.40
2018-01-03T11:02:49.020Z,8.30
2018-01-03T11:05:17.272Z,8.30
2018-01-03T11:07:45.552Z,8.30
2018-01-03T11:10:15.288Z,8.40
2018-01-03T11:12:43.525Z,8.30
2018-01-03T11:15:11.820Z,8.30
2018-01-03T11:17:40.048Z,8.20
2018-01-03T11:20:09.408Z,8.20
2018-01-03T11:22:38.445Z,8.20
2018-01-03T11:25:07.459Z,8.20
2018-01-03T11:30:06.000Z,8.20
2018-01-03T11:32:34.208Z,8.10
2018-01-03T11:35:02.476Z,8.10
2018-01-03T11:37:30.754Z,8.10
2018-01-03T11:39:59.711Z,8.10
2018-01-03T11:42:28.352Z,8.10
2018-01-03T11:44:56.633Z,8.00
2018-01-03T11:49:55.096Z,8.00
2018-01-03T11:52:23.356Z,8.00
2018-01-03T11:57:21.844Z,8.10
2018-01-03T11:59:51.007Z,8.00
2018-01-03T12:02:19.254Z,8.00
2018-01-03T12:04:48.273Z,8.00
2018-01-03T12:07:17.339Z,8.00
2018-01-03T12:09:45.572Z,8.00
2018-01-03T12:12:13.820Z,8.00
2018-01-03T12:14:44.230Z,8.00
2018-01-03T12:17:12.464Z,7.90
2018-01-03T12:19:41.828Z,8.00
2018-01-03T12:22:10.914Z,7.90
2018-01-03T12:24:40.304Z,7.90
2018-01-03T12:27:08.524Z,7.90
2018-01-03T12:32:07.783Z,7.90
2018-01-03T12:34:37.521Z,7.90
2018-01-03T12:37:06.568Z,8.00
2018-01-03T12:39:35.936Z,7.90
2018-01-03T12:42:05.676Z,8.00
2018-01-03T12:44:33.948Z,7.90
2018-01-03T12:47:02.197Z,7.90
2018-01-03T12:49:31.231Z,7.90
2018-01-03T12:54:29.377Z,7.90
2018-01-03T12:56:57.643Z,7.90
2018-01-03T12:59:27.103Z,7.90
2018-01-03T13:01:55.732Z,8.00
2018-01-03T13:04:23.964Z,7.90
2018-01-03T13:06:52.251Z,7.90
2018-01-03T13:09:20.480Z,8.00
2018-01-03T13:11:48.745Z,8.00
2018-01-03T13:14:17.032Z,8.00
2018-01-03T13:16:45.262Z,8.10
2018-01-03T13:19:13.509Z,8.10
2018-01-03T13:24:11.648Z,8.20
2018-01-03T13:26:40.644Z,8.20
2018-01-03T13:29:08.930Z,8.20
2018-01-03T13:31:37.163Z,8.20
2018-01-03T13:34:05.391Z,8.30
2018-01-03T13:36:33.687Z,8.30
2018-01-03T13:41:31.420Z,8.20
2018-01-03T13:44:00.506Z,8.30
2018-01-03T13:46:28.764Z,8.30
2018-01-03T13:48:57.011Z,8.30
2018-01-03T13:51:26.445Z,8.30
2018-01-03T13:53:54.661Z,8.30
2018-01-03T13:58:53.152Z,8.30
2018-01-03T14:01:21.387Z,8.30
2018-01-03T14:03:50.407Z,8.30
2018-01-03T14:08:48.636Z,8.40
2018-01-03T14:13:47.160Z,8.50
2018-01-03T14:16:16.910Z,8.40
2018-01-03T14:23:45.619Z,8.80
2018-01-03T14:26:13.867Z,8.80
2018-01-03T14:28:42.543Z,8.80
2018-01-03T14:31:10.773Z,8.80
2018-01-03T14:33:40.140Z,8.90
2018-01-03T14:36:08.404Z,8.90
2018-01-03T14:41:06.860Z,9.00
2018-01-03T14:46:04.617Z,9.10
2018-01-03T14:48:33.646Z,9.10
2018-01-03T14:53:32.975Z,9.20
2018-01-03T14:56:01.219Z,9.10
2018-01-03T14:58:30.633Z,9.00
2018-01-03T15:00:59.668Z,9.00
2018-01-03T15:03:27.894Z,9.00
2018-01-03T15:08:25.635Z,8.90
2018-01-03T15:10:54.678Z,8.90
2018-01-03T15:13:24.060Z,8.90
2018-01-03T15:15:52.356Z,8.80
2018-01-03T15:18:20.585Z,9.00
2018-01-03T15:20:48.900Z,8.90
2018-01-03T15:25:47.021Z,8.90
2018-01-03T15:28:15.282Z,8.90
2018-01-03T15:30:43.551Z,8.90
2018-01-03T15:33:12.536Z,9.00
2018-01-03T15:35:40.824Z,9.00
2018-01-03T15:38:09.076Z,9.20
2018-01-03T15:40:37.320Z,9.20
2018-01-03T15:43:05.580Z,9.20
2018-01-03T15:45:33.867Z,9.20
2018-01-03T15:48:02.099Z,9.20
2018-01-03T15:50:30.417Z,9.20
2018-01-03T15:52:59.481Z,9.10
2018-01-03T15:55:27.763Z,9.10
2018-01-03T15:57:56.032Z,9.00
2018-01-03T16:00:24.256Z,9.00
2018-01-03T16:02:52.533Z,9.00
2018-01-03T16:05:20.791Z,8.90
2018-01-03T16:07:50.182Z,9.00
2018-01-03T16:10:19.321Z,8.90
2018-01-03T16:15:18.661Z,9.00
2018-01-03T16:17:46.878Z,9.00
2018-01-03T16:20:15.147Z,9.10
2018-01-03T16:22:44.902Z,9.10
2018-01-03T16:25:13.140Z,9.10
2018-01-03T16:27:42.977Z,9.20
2018-01-03T16:30:11.196Z,9.30
2018-01-03T16:32:40.188Z,9.30
2018-01-03T16:35:08.451Z,9.40
2018-01-03T16:37:37.905Z,9.40
2018-01-03T16:40:06.508Z,9.40
2018-01-03T16:42:34.865Z,9.50
2018-01-03T16:45:04.632Z,9.50
2018-01-03T16:47:32.932Z,9.60
2018-01-03T16:50:01.312Z,9.60
2018-01-03T16:52:35.241Z,9.50
2018-01-03T16:55:04.338Z,9.60
2018-01-03T16:57:32.559Z,9.50
2018-01-03T17:00:02.316Z,9.50
2018-01-03T17:02:30.642Z,9.50
2018-01-03T17:04:58.961Z,9.40
2018-01-03T17:07:27.237Z,9.40
2018-01-03T17:09:55.661Z,9.30
2018-01-03T17:12:23.908Z,9.30
2018-01-03T17:14:53.271Z,9.30
2018-01-03T17:17:21.582Z,9.30
2018-01-03T17:19:49.829Z,9.30
2018-01-03T17:22:18.475Z,9.20
2018-01-03T17:27:16.758Z,9.30
2018-01-03T17:29:46.550Z,9.30
2018-01-03T17:32:14.920Z,9.30
2018-01-03T17:34:44.000Z,9.30
2018-01-03T17:37:12.367Z,9.30
2018-01-03T17:39:40.718Z,9.30
2018-01-03T17:42:08.955Z,9.20
2018-01-03T17:44:38.395Z,9.30
2018-01-03T17:47:07.053Z,9.30
2018-01-03T17:49:35.375Z,9.40
2018-01-03T17:52:03.831Z,9.40
2018-01-03T17:57:01.667Z,9.40
2018-01-03T17:59:30.131Z,9.40
2018-01-03T18:01:58.460Z,9.40
2018-01-03T18:06:56.367Z,9.40
2018-01-03T18:11:54.677Z,9.50
2018-01-03T18:14:23.739Z,9.40
2018-01-03T18:16:52.114Z,9.40
2018-01-03T18:19:21.241Z,9.50
2018-01-03T18:21:49.574Z,9.50
2018-01-03T18:24:18.292Z,9.50
2018-01-03T18:26:46.680Z,9.50
2018-01-03T18:29:15.199Z,9.40
2018-01-03T18:31:44.715Z,9.40
2018-01-03T18:34:12.982Z,8.90
2018-01-03T18:36:41.251Z,8.70
2018-01-03T18:39:10.036Z,8.60
2018-01-03T18:41:38.388Z,8.40
2018-01-03T18:46:36.285Z,8.00
2018-01-03T18:49:06.103Z,7.90
2018-01-03T18:54:04.753Z,7.60
2018-01-03T18:56:33.791Z,7.50
2018-01-03T19:01:32.047Z,7.60
2018-01-03T19:04:00.374Z,7.50
2018-01-03T19:08:58.246Z,7.60
2018-01-03T19:11:26.539Z,7.60
2018-01-03T19:13:55.568Z,7.70
2018-01-03T19:16:24.636Z,7.80
2018-01-03T19:21:23.204Z,8.00
2018-01-03T19:23:51.911Z,8.00
2018-01-03T19:26:21.702Z,8.10
2018-01-03T19:28:49.972Z,8.10
2018-01-03T19:31:18.289Z,8.10
2018-01-03T19:33:46.676Z,8.10
2018-01-03T19:36:16.415Z,8.10
2018-01-03T19:38:44.754Z,8.10
2018-01-03T19:43:43.687Z,8.10
2018-01-03T19:46:12.041Z,8.10
2018-01-03T19:48:40.291Z,8.10
2018-01-03T19:51:08.573Z,8.10
2018-01-03T19:53:37.768Z,8.10
2018-01-03T19:58:36.756Z,8.10
2018-01-03T20:01:05.109Z,8.10
2018-01-03T20:03:33.379Z,8.10
2018-01-03T20:06:01.660Z,8.10
2018-01-03T20:08:30.040Z,8.10
2018-01-03T20:13:27.848Z,8.10
2018-01-03T20:20:56.567Z,8.20
2018-01-03T20:23:25.676Z,8.30
2018-01-03T20:25:55.033Z,8.30
2018-01-03T20:28:23.700Z,8.30
2018-01-03T20:30:51.966Z,8.30
2018-01-03T20:33:20.313Z,8.30
2018-01-03T20:35:48.598Z,8.30
2018-01-03T20:38:18.046Z,8.30
2018-01-03T20:40:46.294Z,8.30
2018-01-03T20:43:14.558Z,8.30
2018-01-03T20:45:43.671Z,8.30
2018-01-03T20:48:13.081Z,8.30
2018-01-03T20:50:41.355Z,8.30
2018-01-03T20:53:09.758Z,8.30
2018-01-03T20:55:38.028Z,8.40
2018-01-03T20:58:07.046Z,8.30
2018-01-03T21:03:05.287Z,8.30
2018-01-03T21:08:03.572Z,8.30
2018-01-03T21:13:01.818Z,8.40
2018-01-03T21:18:00.512Z,8.30
2018-01-03T21:20:28.802Z,8.30
2018-01-03T21:22:57.175Z,8.30
2018-01-03T21:30:25.827Z,8.40
2018-01-03T21:32:55.288Z,8.40
2018-01-03T21:35:23.504Z,8.40
2018-01-03T21:37:51.847Z,8.30
2018-01-03T21:42:51.130Z,8.40
2018-01-03T21:45:20.220Z,8.30
2018-01-03T21:47:48.888Z,8.30
2018-01-03T21:55:16.529Z,8.30
2018-01-03T21:57:45.963Z,8.30
2018-01-03T22:02:45.924Z,8.30
2018-01-03T22:05:14.211Z,8.40
2018-01-03T22:07:42.530Z,8.30
2018-01-03T22:12:41.081Z,8.40
2018-01-03T22:15:09.380Z,8.30
2018-01-03T22:17:37.668Z,8.30
2018-01-03T22:22:35.873Z,8.40
2018-01-03T22:27:35.182Z,8.40
2018-01-03T22:30:03.536Z,8.40
2018-01-03T22:35:01.748Z,8.40
2018-01-03T22:37:30.081Z,8.40
2018-01-03T22:39:58.689Z,8.30
2018-01-03T22:42:27.725Z,8.40
2018-01-03T22:44:56.094Z,8.40
2018-01-03T22:47:24.319Z,8.50
2018-01-03T22:49:52.983Z,8.50
2018-01-03T22:52:21.306Z,8.60
2018-01-03T22:54:51.083Z,8.60
2018-01-03T22:57:19.362Z,8.60
2018-01-03T23:02:17.618Z,8.70
2018-01-03T23:04:47.032Z,8.80
2018-01-03T23:07:16.104Z,8.80
2018-01-03T23:09:44.381Z,8.80
2018-01-03T23:12:13.410Z,8.80
2018-01-03T23:14:41.751Z,8.80
2018-01-03T23:17:10.021Z,8.90
2018-01-03T23:19:38.292Z,8.80
2018-01-03T23:22:06.766Z,9.00
2018-01-03T23:24:35.802Z,8.90
2018-01-03T23:27:04.489Z,9.00
2018-01-03T23:29:32.803Z,9.00
2018-01-03T23:34:32.386Z,9.10
2018-01-03T23:37:01.454Z,9.10
2018-01-03T23:39:29.762Z,9.10
2018-01-03T23:41:59.186Z,9.00
2018-01-03T23:44:27.471Z,9.10
2018-01-03T23:46:55.732Z,9.00
2018-01-03T23:49:25.002Z,9.00
2018-01-03T23:54:23.118Z,9.00
2018-01-03T23:56:51.437Z,9.10
2018-01-03T23:59:19.710Z,9.00
